sensor_id;sensor_type;location;lat;lon;timestamp;P1;durP1;ratioP1;P2;durP2;ratioP2
18883;SDS011;9574;47.282;9.640;2023-08-01T00:01:36;4.75;;;2.60;;
18883;SDS011;9574;47.282;9.640;2023-08-01T00:04:03;4.10;;;2.17;;
18883;SDS011;9574;47.282;9.640;2023-08-01T00:06:30;3.83;;;2.20;;
18883;SDS011;9574;47.282;9.640;2023-08-01T00:08:57;2.75;;;2.08;;
18883;SDS011;9574;47.282;9.640;2023-08-01T00:11:24;3.58;;;2.50;;
18883;SDS011;9574;47.282;9.640;2023-08-01T00:13:52;4.20;;;2.35;;
18883;SDS011;9574;47.282;9.640;2023-08-01T00:16:19;4.47;;;2.33;;
18883;SDS011;9574;47.282;9.640;2023-08-01T00:18:46;3.13;;;2.00;;
18883;SDS011;9574;47.282;9.640;2023-08-01T00:21:13;4.00;;;2.42;;
18883;SDS011;9574;47.282;9.640;2023-08-01T00:23:40;4.40;;;2.30;;
18883;SDS011;9574;47.282;9.640;2023-08-01T00:26:07;5.85;;;2.28;;
18883;SDS011;9574;47.282;9.640;2023-08-01T00:28:34;6.22;;;2.45;;
18883;SDS011;9574;47.282;9.640;2023-08-01T00:31:03;5.53;;;2.55;;
18883;SDS011;9574;47.282;9.640;2023-08-01T00:33:31;3.58;;;2.28;;
18883;SDS011;9574;47.282;9.640;2023-08-01T00:35:58;3.78;;;2.35;;
18883;SDS011;9574;47.282;9.640;2023-08-01T00:38:25;4.05;;;2.35;;
18883;SDS011;9574;47.282;9.640;2023-08-01T00:40:52;4.35;;;2.92;;
18883;SDS011;9574;47.282;9.640;2023-08-01T00:43:19;3.67;;;2.47;;
18883;SDS011;9574;47.282;9.640;2023-08-01T00:45:46;2.83;;;2.17;;
18883;SDS011;9574;47.282;9.640;2023-08-01T00:48:15;3.08;;;2.30;;
18883;SDS011;9574;47.282;9.640;2023-08-01T00:50:44;4.13;;;2.60;;
18883;SDS011;9574;47.282;9.640;2023-08-01T00:53:11;4.25;;;2.33;;
18883;SDS011;9574;47.282;9.640;2023-08-01T00:55:39;2.78;;;2.05;;
18883;SDS011;9574;47.282;9.640;2023-08-01T00:58:06;3.10;;;2.30;;
18883;SDS011;9574;47.282;9.640;2023-08-01T01:00:33;3.40;;;2.10;;
18883;SDS011;9574;47.282;9.640;2023-08-01T01:03:01;3.78;;;2.38;;
18883;SDS011;9574;47.282;9.640;2023-08-01T01:05:31;3.85;;;2.15;;
18883;SDS011;9574;47.282;9.640;2023-08-01T01:08:01;4.53;;;2.20;;
18883;SDS011;9574;47.282;9.640;2023-08-01T01:10:29;4.78;;;2.83;;
18883;SDS011;9574;47.282;9.640;2023-08-01T01:12:56;4.72;;;2.40;;
18883;SDS011;9574;47.282;9.640;2023-08-01T01:15:23;6.00;;;2.60;;
18883;SDS011;9574;47.282;9.640;2023-08-01T01:17:50;3.08;;;2.03;;
18883;SDS011;9574;47.282;9.640;2023-08-01T01:20:20;5.05;;;2.08;;
18883;SDS011;9574;47.282;9.640;2023-08-01T01:22:50;3.25;;;2.22;;
18883;SDS011;9574;47.282;9.640;2023-08-01T01:25:19;5.03;;;2.47;;
18883;SDS011;9574;47.282;9.640;2023-08-01T01:27:48;3.22;;;2.25;;
18883;SDS011;9574;47.282;9.640;2023-08-01T01:30:18;3.00;;;1.88;;
18883;SDS011;9574;47.282;9.640;2023-08-01T01:32:45;2.80;;;2.40;;
18883;SDS011;9574;47.282;9.640;2023-08-01T01:35:14;2.50;;;2.20;;
18883;SDS011;9574;47.282;9.640;2023-08-01T01:37:41;7.95;;;2.42;;
18883;SDS011;9574;47.282;9.640;2023-08-01T01:40:09;3.55;;;2.45;;
18883;SDS011;9574;47.282;9.640;2023-08-01T01:42:37;3.13;;;2.25;;
18883;SDS011;9574;47.282;9.640;2023-08-01T01:45:04;4.00;;;2.50;;
18883;SDS011;9574;47.282;9.640;2023-08-01T01:47:32;8.77;;;2.20;;
18883;SDS011;9574;47.282;9.640;2023-08-01T01:49:59;4.28;;;2.55;;
18883;SDS011;9574;47.282;9.640;2023-08-01T01:52:26;5.05;;;2.30;;
18883;SDS011;9574;47.282;9.640;2023-08-01T01:54:52;4.30;;;2.30;;
18883;SDS011;9574;47.282;9.640;2023-08-01T01:57:21;4.10;;;2.45;;
18883;SDS011;9574;47.282;9.640;2023-08-01T01:59:48;3.17;;;2.25;;
18883;SDS011;9574;47.282;9.640;2023-08-01T02:02:15;2.92;;;2.22;;
18883;SDS011;9574;47.282;9.640;2023-08-01T02:04:42;5.68;;;2.28;;
18883;SDS011;9574;47.282;9.640;2023-08-01T02:07:09;5.80;;;2.42;;
18883;SDS011;9574;47.282;9.640;2023-08-01T02:09:35;2.60;;;2.30;;
18883;SDS011;9574;47.282;9.640;2023-08-01T02:12:03;4.90;;;2.40;;
18883;SDS011;9574;47.282;9.640;2023-08-01T02:14:31;2.60;;;2.10;;
18883;SDS011;9574;47.282;9.640;2023-08-01T02:16:58;3.47;;;2.30;;
18883;SDS011;9574;47.282;9.640;2023-08-01T02:19:25;3.10;;;2.20;;
18883;SDS011;9574;47.282;9.640;2023-08-01T02:21:53;4.18;;;2.38;;
18883;SDS011;9574;47.282;9.640;2023-08-01T02:24:20;4.47;;;2.13;;
18883;SDS011;9574;47.282;9.640;2023-08-01T02:26:47;3.53;;;2.60;;
18883;SDS011;9574;47.282;9.640;2023-08-01T02:29:15;4.38;;;2.40;;
18883;SDS011;9574;47.282;9.640;2023-08-01T02:31:43;4.00;;;2.50;;
18883;SDS011;9574;47.282;9.640;2023-08-01T02:34:10;3.75;;;2.42;;
18883;SDS011;9574;47.282;9.640;2023-08-01T02:36:37;5.00;;;2.28;;
18883;SDS011;9574;47.282;9.640;2023-08-01T02:39:05;4.93;;;2.47;;
18883;SDS011;9574;47.282;9.640;2023-08-01T02:41:32;4.68;;;2.33;;
18883;SDS011;9574;47.282;9.640;2023-08-01T02:43:59;3.75;;;2.53;;
18883;SDS011;9574;47.282;9.640;2023-08-01T02:46:26;8.65;;;2.58;;
18883;SDS011;9574;47.282;9.640;2023-08-01T02:48:56;2.38;;;1.98;;
18883;SDS011;9574;47.282;9.640;2023-08-01T02:51:23;4.88;;;2.35;;
18883;SDS011;9574;47.282;9.640;2023-08-01T02:53:49;3.28;;;1.98;;
18883;SDS011;9574;47.282;9.640;2023-08-01T02:56:15;4.15;;;2.38;;
18883;SDS011;9574;47.282;9.640;2023-08-01T02:58:42;3.58;;;2.33;;
18883;SDS011;9574;47.282;9.640;2023-08-01T03:01:09;2.53;;;2.10;;
18883;SDS011;9574;47.282;9.640;2023-08-01T03:03:37;6.40;;;2.58;;
18883;SDS011;9574;47.282;9.640;2023-08-01T03:06:05;3.35;;;2.30;;
18883;SDS011;9574;47.282;9.640;2023-08-01T03:08:32;6.38;;;2.40;;
18883;SDS011;9574;47.282;9.640;2023-08-01T03:10:59;3.03;;;2.25;;
18883;SDS011;9574;47.282;9.640;2023-08-01T03:13:26;4.78;;;2.13;;
18883;SDS011;9574;47.282;9.640;2023-08-01T03:15:53;4.80;;;2.20;;
18883;SDS011;9574;47.282;9.640;2023-08-01T03:18:20;4.80;;;2.08;;
18883;SDS011;9574;47.282;9.640;2023-08-01T03:20:47;3.38;;;2.30;;
18883;SDS011;9574;47.282;9.640;2023-08-01T03:23:16;3.60;;;2.10;;
18883;SDS011;9574;47.282;9.640;2023-08-01T03:25:42;3.70;;;2.35;;
18883;SDS011;9574;47.282;9.640;2023-08-01T03:28:09;3.97;;;2.47;;
18883;SDS011;9574;47.282;9.640;2023-08-01T03:30:36;2.67;;;2.20;;
18883;SDS011;9574;47.282;9.640;2023-08-01T03:33:04;3.78;;;2.42;;
18883;SDS011;9574;47.282;9.640;2023-08-01T03:35:31;3.88;;;2.45;;
18883;SDS011;9574;47.282;9.640;2023-08-01T03:37:58;4.72;;;2.50;;
18883;SDS011;9574;47.282;9.640;2023-08-01T03:40:26;4.43;;;2.30;;
18883;SDS011;9574;47.282;9.640;2023-08-01T03:42:53;3.65;;;2.47;;
18883;SDS011;9574;47.282;9.640;2023-08-01T03:45:20;3.83;;;2.38;;
18883;SDS011;9574;47.282;9.640;2023-08-01T03:47:47;4.72;;;2.60;;
18883;SDS011;9574;47.282;9.640;2023-08-01T03:50:14;3.20;;;2.15;;
18883;SDS011;9574;47.282;9.640;2023-08-01T03:52:41;3.05;;;2.40;;
18883;SDS011;9574;47.282;9.640;2023-08-01T03:55:08;4.38;;;2.35;;
18883;SDS011;9574;47.282;9.640;2023-08-01T03:57:37;2.95;;;2.20;;
18883;SDS011;9574;47.282;9.640;2023-08-01T04:00:04;3.35;;;1.88;;
18883;SDS011;9574;47.282;9.640;2023-08-01T04:02:38;4.78;;;2.30;;
18883;SDS011;9574;47.282;9.640;2023-08-01T04:05:06;3.33;;;2.38;;
18883;SDS011;9574;47.282;9.640;2023-08-01T04:07:34;2.72;;;2.17;;
18883;SDS011;9574;47.282;9.640;2023-08-01T04:10:01;3.10;;;1.90;;
18883;SDS011;9574;47.282;9.640;2023-08-01T04:12:28;3.58;;;2.40;;
18883;SDS011;9574;47.282;9.640;2023-08-01T04:14:57;2.85;;;2.03;;
18883;SDS011;9574;47.282;9.640;2023-08-01T04:17:24;3.83;;;2.38;;
18883;SDS011;9574;47.282;9.640;2023-08-01T04:19:51;4.57;;;2.60;;
18883;SDS011;9574;47.282;9.640;2023-08-01T04:22:18;5.55;;;2.42;;
18883;SDS011;9574;47.282;9.640;2023-08-01T04:24:45;3.38;;;2.05;;
18883;SDS011;9574;47.282;9.640;2023-08-01T04:27:12;3.00;;;2.38;;
18883;SDS011;9574;47.282;9.640;2023-08-01T04:29:38;4.35;;;2.83;;
18883;SDS011;9574;47.282;9.640;2023-08-01T04:32:07;3.70;;;2.45;;
18883;SDS011;9574;47.282;9.640;2023-08-01T04:34:36;3.47;;;2.08;;
18883;SDS011;9574;47.282;9.640;2023-08-01T04:37:03;2.95;;;2.10;;
18883;SDS011;9574;47.282;9.640;2023-08-01T04:39:30;3.13;;;2.13;;
18883;SDS011;9574;47.282;9.640;2023-08-01T04:41:57;4.90;;;2.42;;
18883;SDS011;9574;47.282;9.640;2023-08-01T04:44:24;3.33;;;2.17;;
18883;SDS011;9574;47.282;9.640;2023-08-01T04:46:51;4.80;;;2.28;;
18883;SDS011;9574;47.282;9.640;2023-08-01T04:49:19;2.97;;;1.85;;
18883;SDS011;9574;47.282;9.640;2023-08-01T04:51:47;3.58;;;2.08;;
18883;SDS011;9574;47.282;9.640;2023-08-01T04:54:15;7.70;;;2.40;;
18883;SDS011;9574;47.282;9.640;2023-08-01T04:56:42;3.78;;;2.55;;
18883;SDS011;9574;47.282;9.640;2023-08-01T04:59:09;3.53;;;2.35;;
18883;SDS011;9574;47.282;9.640;2023-08-01T05:01:35;4.40;;;2.42;;
18883;SDS011;9574;47.282;9.640;2023-08-01T05:04:03;5.88;;;2.28;;
18883;SDS011;9574;47.282;9.640;2023-08-01T05:06:31;5.63;;;2.63;;
18883;SDS011;9574;47.282;9.640;2023-08-01T05:08:58;3.30;;;2.38;;
18883;SDS011;9574;47.282;9.640;2023-08-01T05:11:25;3.70;;;2.22;;
18883;SDS011;9574;47.282;9.640;2023-08-01T05:13:52;4.43;;;2.72;;
18883;SDS011;9574;47.282;9.640;2023-08-01T05:16:19;5.32;;;2.33;;
18883;SDS011;9574;47.282;9.640;2023-08-01T05:18:46;3.30;;;2.15;;
18883;SDS011;9574;47.282;9.640;2023-08-01T05:21:13;3.75;;;2.53;;
18883;SDS011;9574;47.282;9.640;2023-08-01T05:23:41;5.90;;;2.40;;
18883;SDS011;9574;47.282;9.640;2023-08-01T05:26:08;6.45;;;2.33;;
18883;SDS011;9574;47.282;9.640;2023-08-01T05:28:35;4.35;;;2.75;;
18883;SDS011;9574;47.282;9.640;2023-08-01T05:31:02;5.43;;;2.70;;
18883;SDS011;9574;47.282;9.640;2023-08-01T05:33:29;3.97;;;2.50;;
18883;SDS011;9574;47.282;9.640;2023-08-01T05:35:56;4.72;;;2.75;;
18883;SDS011;9574;47.282;9.640;2023-08-01T05:38:23;4.38;;;2.47;;
18883;SDS011;9574;47.282;9.640;2023-08-01T05:40:51;5.50;;;2.50;;
18883;SDS011;9574;47.282;9.640;2023-08-01T05:43:18;3.72;;;2.35;;
18883;SDS011;9574;47.282;9.640;2023-08-01T05:45:45;4.72;;;2.22;;
18883;SDS011;9574;47.282;9.640;2023-08-01T05:48:13;5.45;;;2.35;;
18883;SDS011;9574;47.282;9.640;2023-08-01T05:50:40;4.25;;;2.78;;
18883;SDS011;9574;47.282;9.640;2023-08-01T05:53:07;3.90;;;2.47;;
18883;SDS011;9574;47.282;9.640;2023-08-01T05:55:34;3.55;;;2.42;;
18883;SDS011;9574;47.282;9.640;2023-08-01T05:58:02;6.32;;;2.20;;
18883;SDS011;9574;47.282;9.640;2023-08-01T06:00:29;7.80;;;2.50;;
18883;SDS011;9574;47.282;9.640;2023-08-01T06:02:56;3.53;;;2.53;;
18883;SDS011;9574;47.282;9.640;2023-08-01T06:05:23;4.13;;;2.67;;
18883;SDS011;9574;47.282;9.640;2023-08-01T06:07:50;3.70;;;2.35;;
18883;SDS011;9574;47.282;9.640;2023-08-01T06:10:17;4.50;;;2.60;;
18883;SDS011;9574;47.282;9.640;2023-08-01T06:12:44;6.03;;;2.63;;
18883;SDS011;9574;47.282;9.640;2023-08-01T06:15:13;8.45;;;2.95;;
18883;SDS011;9574;47.282;9.640;2023-08-01T06:17:40;4.60;;;2.33;;
18883;SDS011;9574;47.282;9.640;2023-08-01T06:20:07;6.78;;;3.05;;
18883;SDS011;9574;47.282;9.640;2023-08-01T06:22:35;4.28;;;2.70;;
18883;SDS011;9574;47.282;9.640;2023-08-01T06:25:02;3.92;;;2.60;;
18883;SDS011;9574;47.282;9.640;2023-08-01T06:27:29;3.67;;;2.60;;
18883;SDS011;9574;47.282;9.640;2023-08-01T06:29:56;5.03;;;2.72;;
18883;SDS011;9574;47.282;9.640;2023-08-01T06:32:25;7.03;;;2.50;;
18883;SDS011;9574;47.282;9.640;2023-08-01T06:34:52;6.10;;;2.50;;
18883;SDS011;9574;47.282;9.640;2023-08-01T06:37:19;5.07;;;2.33;;
18883;SDS011;9574;47.282;9.640;2023-08-01T06:39:46;5.75;;;2.30;;
18883;SDS011;9574;47.282;9.640;2023-08-01T06:42:13;4.55;;;2.55;;
18883;SDS011;9574;47.282;9.640;2023-08-01T06:44:41;3.72;;;2.38;;
18883;SDS011;9574;47.282;9.640;2023-08-01T06:47:08;5.03;;;2.17;;
18883;SDS011;9574;47.282;9.640;2023-08-01T06:49:36;3.05;;;2.47;;
18883;SDS011;9574;47.282;9.640;2023-08-01T06:52:03;2.97;;;1.85;;
18883;SDS011;9574;47.282;9.640;2023-08-01T06:54:31;4.22;;;1.98;;
18883;SDS011;9574;47.282;9.640;2023-08-01T06:56:58;4.25;;;2.47;;
18883;SDS011;9574;47.282;9.640;2023-08-01T06:59:25;3.70;;;2.17;;
18883;SDS011;9574;47.282;9.640;2023-08-01T07:01:52;5.63;;;2.78;;
18883;SDS011;9574;47.282;9.640;2023-08-01T07:04:19;4.05;;;2.67;;
18883;SDS011;9574;47.282;9.640;2023-08-01T07:06:48;2.90;;;2.33;;
18883;SDS011;9574;47.282;9.640;2023-08-01T07:09:15;3.92;;;2.63;;
18883;SDS011;9574;47.282;9.640;2023-08-01T07:11:42;2.75;;;2.30;;
18883;SDS011;9574;47.282;9.640;2023-08-01T07:14:09;3.25;;;2.60;;
18883;SDS011;9574;47.282;9.640;2023-08-01T07:16:35;3.80;;;2.65;;
18883;SDS011;9574;47.282;9.640;2023-08-01T07:19:02;3.25;;;2.33;;
18883;SDS011;9574;47.282;9.640;2023-08-01T07:21:29;4.82;;;2.45;;
18883;SDS011;9574;47.282;9.640;2023-08-01T07:23:58;5.18;;;2.60;;
18883;SDS011;9574;47.282;9.640;2023-08-01T07:26:25;5.82;;;2.95;;
18883;SDS011;9574;47.282;9.640;2023-08-01T07:28:53;3.45;;;2.40;;
18883;SDS011;9574;47.282;9.640;2023-08-01T07:31:20;4.40;;;2.60;;
18883;SDS011;9574;47.282;9.640;2023-08-01T07:33:47;3.75;;;2.40;;
18883;SDS011;9574;47.282;9.640;2023-08-01T07:36:14;5.10;;;3.17;;
18883;SDS011;9574;47.282;9.640;2023-08-01T07:38:41;7.50;;;3.10;;
18883;SDS011;9574;47.282;9.640;2023-08-01T07:41:10;3.30;;;2.72;;
18883;SDS011;9574;47.282;9.640;2023-08-01T07:43:37;4.70;;;2.80;;
18883;SDS011;9574;47.282;9.640;2023-08-01T07:46:04;4.60;;;2.90;;
18883;SDS011;9574;47.282;9.640;2023-08-01T07:48:30;5.22;;;3.10;;
18883;SDS011;9574;47.282;9.640;2023-08-01T07:50:58;4.90;;;3.00;;
18883;SDS011;9574;47.282;9.640;2023-08-01T07:53:25;4.65;;;3.13;;
18883;SDS011;9574;47.282;9.640;2023-08-01T07:55:53;6.30;;;3.50;;
18883;SDS011;9574;47.282;9.640;2023-08-01T07:58:21;5.35;;;3.33;;
18883;SDS011;9574;47.282;9.640;2023-08-01T08:00:48;4.38;;;2.92;;
18883;SDS011;9574;47.282;9.640;2023-08-01T08:03:15;4.13;;;2.85;;
18883;SDS011;9574;47.282;9.640;2023-08-01T08:05:42;4.75;;;3.25;;
18883;SDS011;9574;47.282;9.640;2023-08-01T08:08:09;4.88;;;3.03;;
18883;SDS011;9574;47.282;9.640;2023-08-01T08:10:36;4.70;;;3.33;;
18883;SDS011;9574;47.282;9.640;2023-08-01T08:13:03;4.40;;;2.92;;
18883;SDS011;9574;47.282;9.640;2023-08-01T08:15:32;5.03;;;2.47;;
18883;SDS011;9574;47.282;9.640;2023-08-01T08:18:00;3.17;;;2.00;;
18883;SDS011;9574;47.282;9.640;2023-08-01T08:20:29;3.65;;;2.63;;
18883;SDS011;9574;47.282;9.640;2023-08-01T08:22:56;6.43;;;2.55;;
18883;SDS011;9574;47.282;9.640;2023-08-01T08:25:23;4.65;;;2.55;;
18883;SDS011;9574;47.282;9.640;2023-08-01T08:27:50;4.95;;;2.75;;
18883;SDS011;9574;47.282;9.640;2023-08-01T08:30:17;4.40;;;2.60;;
18883;SDS011;9574;47.282;9.640;2023-08-01T08:32:45;7.05;;;3.10;;
18883;SDS011;9574;47.282;9.640;2023-08-01T08:35:12;6.18;;;3.50;;
18883;SDS011;9574;47.282;9.640;2023-08-01T08:37:39;6.05;;;4.07;;
18883;SDS011;9574;47.282;9.640;2023-08-01T08:40:06;7.10;;;3.08;;
18883;SDS011;9574;47.282;9.640;2023-08-01T08:42:34;6.70;;;3.22;;
18883;SDS011;9574;47.282;9.640;2023-08-01T08:45:02;6.47;;;2.75;;
18883;SDS011;9574;47.282;9.640;2023-08-01T08:47:30;5.35;;;3.33;;
18883;SDS011;9574;47.282;9.640;2023-08-01T08:50:02;8.43;;;3.15;;
18883;SDS011;9574;47.282;9.640;2023-08-01T08:52:31;7.65;;;3.58;;
18883;SDS011;9574;47.282;9.640;2023-08-01T08:54:57;5.75;;;2.67;;
18883;SDS011;9574;47.282;9.640;2023-08-01T08:57:25;3.97;;;2.60;;
18883;SDS011;9574;47.282;9.640;2023-08-01T08:59:53;4.68;;;2.70;;
18883;SDS011;9574;47.282;9.640;2023-08-01T09:02:22;8.38;;;3.20;;
18883;SDS011;9574;47.282;9.640;2023-08-01T09:04:49;5.50;;;2.60;;
18883;SDS011;9574;47.282;9.640;2023-08-01T09:07:18;5.07;;;2.65;;
18883;SDS011;9574;47.282;9.640;2023-08-01T09:09:49;5.00;;;2.78;;
18883;SDS011;9574;47.282;9.640;2023-08-01T09:12:16;4.18;;;2.97;;
18883;SDS011;9574;47.282;9.640;2023-08-01T09:14:43;5.25;;;2.78;;
18883;SDS011;9574;47.282;9.640;2023-08-01T09:17:11;5.22;;;2.50;;
18883;SDS011;9574;47.282;9.640;2023-08-01T09:19:41;5.47;;;3.00;;
18883;SDS011;9574;47.282;9.640;2023-08-01T09:22:11;6.80;;;3.95;;
18883;SDS011;9574;47.282;9.640;2023-08-01T09:24:49;5.65;;;3.38;;
18883;SDS011;9574;47.282;9.640;2023-08-01T09:27:17;7.22;;;3.25;;
18883;SDS011;9574;47.282;9.640;2023-08-01T09:29:44;8.15;;;3.35;;
18883;SDS011;9574;47.282;9.640;2023-08-01T09:32:12;7.18;;;3.15;;
18883;SDS011;9574;47.282;9.640;2023-08-01T09:34:40;6.95;;;3.35;;
18883;SDS011;9574;47.282;9.640;2023-08-01T09:37:07;4.55;;;3.05;;
18883;SDS011;9574;47.282;9.640;2023-08-01T09:39:34;6.15;;;4.07;;
18883;SDS011;9574;47.282;9.640;2023-08-01T09:42:03;5.70;;;3.65;;
18883;SDS011;9574;47.282;9.640;2023-08-01T09:44:30;7.18;;;3.88;;
18883;SDS011;9574;47.282;9.640;2023-08-01T09:46:58;6.22;;;3.80;;
18883;SDS011;9574;47.282;9.640;2023-08-01T09:49:26;5.85;;;3.65;;
18883;SDS011;9574;47.282;9.640;2023-08-01T09:51:54;7.63;;;3.33;;
18883;SDS011;9574;47.282;9.640;2023-08-01T09:54:21;5.57;;;3.22;;
18883;SDS011;9574;47.282;9.640;2023-08-01T09:56:49;5.25;;;2.90;;
18883;SDS011;9574;47.282;9.640;2023-08-01T09:59:19;6.63;;;3.28;;
18883;SDS011;9574;47.282;9.640;2023-08-01T10:01:48;5.40;;;3.80;;
18883;SDS011;9574;47.282;9.640;2023-08-01T10:04:18;4.78;;;2.78;;
18883;SDS011;9574;47.282;9.640;2023-08-01T10:06:46;5.28;;;3.28;;
18883;SDS011;9574;47.282;9.640;2023-08-01T10:09:20;4.78;;;3.10;;
18883;SDS011;9574;47.282;9.640;2023-08-01T10:11:48;4.95;;;2.95;;
18883;SDS011;9574;47.282;9.640;2023-08-01T10:14:16;5.13;;;3.17;;
18883;SDS011;9574;47.282;9.640;2023-08-01T10:16:45;5.95;;;3.47;;
18883;SDS011;9574;47.282;9.640;2023-08-01T10:19:13;4.53;;;2.78;;
18883;SDS011;9574;47.282;9.640;2023-08-01T10:21:40;4.70;;;3.30;;
18883;SDS011;9574;47.282;9.640;2023-08-01T10:24:08;7.40;;;3.20;;
18883;SDS011;9574;47.282;9.640;2023-08-01T10:26:35;4.20;;;2.58;;
18883;SDS011;9574;47.282;9.640;2023-08-01T10:29:02;7.53;;;3.15;;
18883;SDS011;9574;47.282;9.640;2023-08-01T10:31:31;4.32;;;2.83;;
18883;SDS011;9574;47.282;9.640;2023-08-01T10:34:05;5.35;;;3.30;;
18883;SDS011;9574;47.282;9.640;2023-08-01T10:36:33;3.70;;;2.85;;
18883;SDS011;9574;47.282;9.640;2023-08-01T10:39:01;6.03;;;2.75;;
18883;SDS011;9574;47.282;9.640;2023-08-01T10:41:29;4.43;;;2.83;;
18883;SDS011;9574;47.282;9.640;2023-08-01T10:44:04;3.45;;;2.63;;
18883;SDS011;9574;47.282;9.640;2023-08-01T10:46:49;5.93;;;2.63;;
18883;SDS011;9574;47.282;9.640;2023-08-01T10:49:17;5.72;;;3.03;;
18883;SDS011;9574;47.282;9.640;2023-08-01T10:51:45;3.75;;;2.70;;
18883;SDS011;9574;47.282;9.640;2023-08-01T10:54:19;4.78;;;2.78;;
18883;SDS011;9574;47.282;9.640;2023-08-01T10:56:47;4.90;;;2.70;;
18883;SDS011;9574;47.282;9.640;2023-08-01T10:59:15;4.03;;;2.60;;
18883;SDS011;9574;47.282;9.640;2023-08-01T11:01:45;4.15;;;2.42;;
18883;SDS011;9574;47.282;9.640;2023-08-01T11:04:15;3.88;;;2.47;;
18883;SDS011;9574;47.282;9.640;2023-08-01T11:06:43;4.53;;;2.83;;
18883;SDS011;9574;47.282;9.640;2023-08-01T11:09:15;3.63;;;2.30;;
18883;SDS011;9574;47.282;9.640;2023-08-01T11:11:43;4.03;;;2.33;;
18883;SDS011;9574;47.282;9.640;2023-08-01T11:14:11;3.58;;;2.55;;
18883;SDS011;9574;47.282;9.640;2023-08-01T11:16:38;5.25;;;2.63;;
18883;SDS011;9574;47.282;9.640;2023-08-01T11:19:06;5.55;;;2.78;;
18883;SDS011;9574;47.282;9.640;2023-08-01T11:21:44;4.63;;;2.70;;
18883;SDS011;9574;47.282;9.640;2023-08-01T11:24:12;4.50;;;2.78;;
18883;SDS011;9574;47.282;9.640;2023-08-01T11:26:42;3.88;;;2.30;;
18883;SDS011;9574;47.282;9.640;2023-08-01T11:29:10;5.93;;;2.65;;
18883;SDS011;9574;47.282;9.640;2023-08-01T11:31:37;4.47;;;2.63;;
18883;SDS011;9574;47.282;9.640;2023-08-01T11:34:04;4.68;;;2.22;;
18883;SDS011;9574;47.282;9.640;2023-08-01T11:36:33;4.30;;;2.58;;
18883;SDS011;9574;47.282;9.640;2023-08-01T11:39:01;5.70;;;2.63;;
18883;SDS011;9574;47.282;9.640;2023-08-01T11:41:29;4.20;;;2.15;;
18883;SDS011;9574;47.282;9.640;2023-08-01T11:44:00;3.25;;;2.40;;
18883;SDS011;9574;47.282;9.640;2023-08-01T11:46:30;4.95;;;2.67;;
18883;SDS011;9574;47.282;9.640;2023-08-01T11:48:58;5.28;;;2.90;;
18883;SDS011;9574;47.282;9.640;2023-08-01T11:51:26;4.03;;;2.42;;
18883;SDS011;9574;47.282;9.640;2023-08-01T11:53:59;3.45;;;2.05;;
18883;SDS011;9574;47.282;9.640;2023-08-01T11:56:29;4.65;;;2.42;;
18883;SDS011;9574;47.282;9.640;2023-08-01T11:58:56;4.10;;;2.08;;
18883;SDS011;9574;47.282;9.640;2023-08-01T12:01:23;4.97;;;2.83;;
18883;SDS011;9574;47.282;9.640;2023-08-01T12:03:51;4.13;;;2.53;;
18883;SDS011;9574;47.282;9.640;2023-08-01T12:06:19;3.53;;;1.98;;
18883;SDS011;9574;47.282;9.640;2023-08-01T12:08:48;3.17;;;2.40;;
18883;SDS011;9574;47.282;9.640;2023-08-01T12:11:18;2.97;;;1.83;;
18883;SDS011;9574;47.282;9.640;2023-08-01T12:13:46;3.97;;;2.60;;
18883;SDS011;9574;47.282;9.640;2023-08-01T12:16:13;3.67;;;2.20;;
18883;SDS011;9574;47.282;9.640;2023-08-01T12:18:45;4.45;;;2.30;;
18883;SDS011;9574;47.282;9.640;2023-08-01T12:21:13;4.22;;;2.25;;
18883;SDS011;9574;47.282;9.640;2023-08-01T12:23:40;3.90;;;2.40;;
18883;SDS011;9574;47.282;9.640;2023-08-01T12:26:07;3.40;;;2.08;;
18883;SDS011;9574;47.282;9.640;2023-08-01T12:28:36;3.20;;;1.80;;
18883;SDS011;9574;47.282;9.640;2023-08-01T12:31:03;3.20;;;1.90;;
18883;SDS011;9574;47.282;9.640;2023-08-01T12:33:30;3.85;;;1.73;;
18883;SDS011;9574;47.282;9.640;2023-08-01T12:35:58;4.32;;;2.22;;
18883;SDS011;9574;47.282;9.640;2023-08-01T12:38:25;3.42;;;1.63;;
18883;SDS011;9574;47.282;9.640;2023-08-01T12:40:52;6.55;;;2.10;;
18883;SDS011;9574;47.282;9.640;2023-08-01T12:43:19;3.38;;;1.95;;
18883;SDS011;9574;47.282;9.640;2023-08-01T12:45:47;3.33;;;1.80;;
18883;SDS011;9574;47.282;9.640;2023-08-01T12:48:14;3.45;;;2.20;;
18883;SDS011;9574;47.282;9.640;2023-08-01T12:50:43;3.53;;;2.10;;
18883;SDS011;9574;47.282;9.640;2023-08-01T12:53:11;4.63;;;1.70;;
18883;SDS011;9574;47.282;9.640;2023-08-01T12:55:38;4.30;;;2.05;;
18883;SDS011;9574;47.282;9.640;2023-08-01T12:58:07;2.75;;;1.58;;
18883;SDS011;9574;47.282;9.640;2023-08-01T13:00:34;3.38;;;2.00;;
18883;SDS011;9574;47.282;9.640;2023-08-01T13:03:02;3.17;;;2.03;;
18883;SDS011;9574;47.282;9.640;2023-08-01T13:05:29;4.15;;;2.08;;
18883;SDS011;9574;47.282;9.640;2023-08-01T13:07:56;3.30;;;1.75;;
18883;SDS011;9574;47.282;9.640;2023-08-01T13:10:23;2.83;;;2.05;;
18883;SDS011;9574;47.282;9.640;2023-08-01T13:12:50;4.43;;;2.10;;
18883;SDS011;9574;47.282;9.640;2023-08-01T13:15:17;5.07;;;2.00;;
18883;SDS011;9574;47.282;9.640;2023-08-01T13:17:44;5.90;;;2.03;;
18883;SDS011;9574;47.282;9.640;2023-08-01T13:20:12;4.00;;;1.98;;
18883;SDS011;9574;47.282;9.640;2023-08-01T13:22:40;2.80;;;1.60;;
18883;SDS011;9574;47.282;9.640;2023-08-01T13:25:07;3.63;;;1.58;;
18883;SDS011;9574;47.282;9.640;2023-08-01T13:27:34;3.78;;;1.67;;
18883;SDS011;9574;47.282;9.640;2023-08-01T13:30:15;2.05;;;1.30;;
18883;SDS011;9574;47.282;9.640;2023-08-01T13:32:43;2.97;;;1.60;;
18883;SDS011;9574;47.282;9.640;2023-08-01T13:35:11;4.38;;;1.75;;
18883;SDS011;9574;47.282;9.640;2023-08-01T13:37:39;1.88;;;1.23;;
18883;SDS011;9574;47.282;9.640;2023-08-01T13:40:07;2.38;;;1.20;;
18883;SDS011;9574;47.282;9.640;2023-08-01T13:42:36;3.42;;;1.63;;
18883;SDS011;9574;47.282;9.640;2023-08-01T13:45:04;2.60;;;1.60;;
18883;SDS011;9574;47.282;9.640;2023-08-01T13:47:31;2.35;;;1.40;;
18883;SDS011;9574;47.282;9.640;2023-08-01T13:49:58;3.90;;;1.40;;
18883;SDS011;9574;47.282;9.640;2023-08-01T13:52:27;2.28;;;1.42;;
18883;SDS011;9574;47.282;9.640;2023-08-01T13:54:54;2.83;;;1.42;;
18883;SDS011;9574;47.282;9.640;2023-08-01T13:57:21;1.73;;;1.33;;
18883;SDS011;9574;47.282;9.640;2023-08-01T13:59:48;2.05;;;1.50;;
18883;SDS011;9574;47.282;9.640;2023-08-01T14:02:15;2.17;;;1.50;;
18883;SDS011;9574;47.282;9.640;2023-08-01T14:04:42;3.95;;;1.40;;
18883;SDS011;9574;47.282;9.640;2023-08-01T14:07:09;4.50;;;1.35;;
18883;SDS011;9574;47.282;9.640;2023-08-01T14:09:38;3.00;;;1.42;;
18883;SDS011;9574;47.282;9.640;2023-08-01T14:12:05;2.97;;;1.60;;
18883;SDS011;9574;47.282;9.640;2023-08-01T14:14:33;2.72;;;1.40;;
18883;SDS011;9574;47.282;9.640;2023-08-01T14:17:00;2.70;;;1.42;;
18883;SDS011;9574;47.282;9.640;2023-08-01T14:19:27;2.00;;;1.35;;
18883;SDS011;9574;47.282;9.640;2023-08-01T14:21:55;2.25;;;1.30;;
18883;SDS011;9574;47.282;9.640;2023-08-01T14:24:22;1.90;;;1.33;;
18883;SDS011;9574;47.282;9.640;2023-08-01T14:26:51;2.83;;;1.50;;
18883;SDS011;9574;47.282;9.640;2023-08-01T14:29:18;3.15;;;1.75;;
18883;SDS011;9574;47.282;9.640;2023-08-01T14:31:47;2.75;;;1.58;;
18883;SDS011;9574;47.282;9.640;2023-08-01T14:34:14;3.17;;;1.40;;
18883;SDS011;9574;47.282;9.640;2023-08-01T14:36:42;3.78;;;1.25;;
18883;SDS011;9574;47.282;9.640;2023-08-01T14:39:09;2.17;;;1.30;;
18883;SDS011;9574;47.282;9.640;2023-08-01T14:41:35;2.80;;;1.65;;
18883;SDS011;9574;47.282;9.640;2023-08-01T14:44:04;3.15;;;1.45;;
18883;SDS011;9574;47.282;9.640;2023-08-01T14:46:31;1.73;;;1.17;;
18883;SDS011;9574;47.282;9.640;2023-08-01T14:48:58;1.50;;;1.20;;
18883;SDS011;9574;47.282;9.640;2023-08-01T14:51:25;2.55;;;1.58;;
18883;SDS011;9574;47.282;9.640;2023-08-01T14:53:52;2.30;;;1.50;;
18883;SDS011;9574;47.282;9.640;2023-08-01T14:56:19;3.50;;;1.48;;
18883;SDS011;9574;47.282;9.640;2023-08-01T14:58:46;2.20;;;1.27;;
18883;SDS011;9574;47.282;9.640;2023-08-01T15:01:14;3.65;;;1.63;;
18883;SDS011;9574;47.282;9.640;2023-08-01T15:03:43;2.10;;;1.50;;